sensor_id;sensor_type;location;lat;lon;timestamp;P1;durP1;ratioP1;P2;durP2;ratioP2
17921;SDS011;9086;50.966;3.144;2022-07-09T00:01:45;11.65;;;10.55;;
17921;SDS011;9086;50.966;3.144;2022-07-09T00:04:13;10.18;;;9.27;;
17921;SDS011;9086;50.966;3.144;2022-07-09T00:06:39;10.30;;;9.32;;
17921;SDS011;9086;50.966;3.144;2022-07-09T00:09:05;9.98;;;9.10;;
17921;SDS011;9086;50.966;3.144;2022-07-09T00:11:33;11.30;;;10.38;;
17921;SDS011;9086;50.966;3.144;2022-07-09T00:13:59;11.10;;;9.45;;
17921;SDS011;9086;50.966;3.144;2022-07-09T00:16:25;14.27;;;11.05;;
17921;SDS011;9086;50.966;3.144;2022-07-09T00:18:51;10.80;;;9.80;;
17921;SDS011;9086;50.966;3.144;2022-07-09T00:21:18;11.13;;;10.15;;
17921;SDS011;9086;50.966;3.144;2022-07-09T00:23:44;10.65;;;9.63;;
17921;SDS011;9086;50.966;3.144;2022-07-09T00:26:10;11.15;;;10.35;;
17921;SDS011;9086;50.966;3.144;2022-07-09T00:28:37;11.40;;;10.30;;
17921;SDS011;9086;50.966;3.144;2022-07-09T00:31:03;11.32;;;10.27;;
17921;SDS011;9086;50.966;3.144;2022-07-09T00:33:29;13.50;;;11.00;;
17921;SDS011;9086;50.966;3.144;2022-07-09T00:35:55;12.10;;;10.90;;
17921;SDS011;9086;50.966;3.144;2022-07-09T00:38:21;12.07;;;10.98;;
17921;SDS011;9086;50.966;3.144;2022-07-09T00:40:47;12.00;;;10.77;;
17921;SDS011;9086;50.966;3.144;2022-07-09T00:43:15;11.63;;;10.73;;
17921;SDS011;9086;50.966;3.144;2022-07-09T00:45:41;12.73;;;11.57;;
17921;SDS011;9086;50.966;3.144;2022-07-09T00:48:07;11.63;;;10.67;;
17921;SDS011;9086;50.966;3.144;2022-07-09T00:50:33;12.93;;;11.60;;
17921;SDS011;9086;50.966;3.144;2022-07-09T00:52:59;13.93;;;12.63;;
17921;SDS011;9086;50.966;3.144;2022-07-09T00:55:25;14.87;;;13.60;;
17921;SDS011;9086;50.966;3.144;2022-07-09T00:57:51;14.17;;;12.77;;
17921;SDS011;9086;50.966;3.144;2022-07-09T01:00:20;13.03;;;11.87;;
17921;SDS011;9086;50.966;3.144;2022-07-09T01:02:47;13.52;;;12.35;;
17921;SDS011;9086;50.966;3.144;2022-07-09T01:05:13;14.20;;;13.00;;
17921;SDS011;9086;50.966;3.144;2022-07-09T01:07:39;13.60;;;12.50;;
17921;SDS011;9086;50.966;3.144;2022-07-09T01:10:07;13.35;;;12.18;;
17921;SDS011;9086;50.966;3.144;2022-07-09T01:12:35;14.63;;;13.50;;
17921;SDS011;9086;50.966;3.144;2022-07-09T01:15:01;16.73;;;15.23;;
17921;SDS011;9086;50.966;3.144;2022-07-09T01:17:27;17.10;;;15.50;;
17921;SDS011;9086;50.966;3.144;2022-07-09T01:19:53;16.00;;;14.40;;
17921;SDS011;9086;50.966;3.144;2022-07-09T01:22:19;16.43;;;15.03;;
17921;SDS011;9086;50.966;3.144;2022-07-09T01:24:45;17.80;;;16.10;;
17921;SDS011;9086;50.966;3.144;2022-07-09T01:27:11;17.73;;;16.17;;
17921;SDS011;9086;50.966;3.144;2022-07-09T01:29:39;17.60;;;16.00;;
17921;SDS011;9086;50.966;3.144;2022-07-09T01:32:08;16.77;;;15.27;;
17921;SDS011;9086;50.966;3.144;2022-07-09T01:34:36;17.90;;;16.53;;
17921;SDS011;9086;50.966;3.144;2022-07-09T01:37:03;19.37;;;17.40;;
17921;SDS011;9086;50.966;3.144;2022-07-09T01:39:29;18.93;;;16.97;;
17921;SDS011;9086;50.966;3.144;2022-07-09T01:41:55;18.23;;;16.60;;
17921;SDS011;9086;50.966;3.144;2022-07-09T01:44:21;18.87;;;17.20;;
17921;SDS011;9086;50.966;3.144;2022-07-09T01:46:47;20.00;;;18.33;;
17921;SDS011;9086;50.966;3.144;2022-07-09T01:49:13;20.50;;;18.50;;
17921;SDS011;9086;50.966;3.144;2022-07-09T01:51:39;19.87;;;18.07;;
17921;SDS011;9086;50.966;3.144;2022-07-09T01:54:05;19.13;;;17.43;;
17921;SDS011;9086;50.966;3.144;2022-07-09T01:56:31;20.87;;;19.00;;
17921;SDS011;9086;50.966;3.144;2022-07-09T01:58:58;21.57;;;19.83;;
17921;SDS011;9086;50.966;3.144;2022-07-09T02:01:24;21.00;;;19.10;;
17921;SDS011;9086;50.966;3.144;2022-07-09T02:03:50;21.67;;;19.87;;
17921;SDS011;9086;50.966;3.144;2022-07-09T02:06:16;21.07;;;19.17;;
17921;SDS011;9086;50.966;3.144;2022-07-09T02:08:42;20.40;;;18.60;;
17921;SDS011;9086;50.966;3.144;2022-07-09T02:11:10;21.17;;;19.00;;
17921;SDS011;9086;50.966;3.144;2022-07-09T02:13:36;21.70;;;19.80;;
17921;SDS011;9086;50.966;3.144;2022-07-09T02:16:02;23.10;;;20.83;;
17921;SDS011;9086;50.966;3.144;2022-07-09T02:18:29;26.37;;;23.60;;
17921;SDS011;9086;50.966;3.144;2022-07-09T02:20:55;25.90;;;23.60;;
17921;SDS011;9086;50.966;3.144;2022-07-09T02:23:21;27.17;;;24.40;;
17921;SDS011;9086;50.966;3.144;2022-07-09T02:25:48;26.57;;;23.93;;
17921;SDS011;9086;50.966;3.144;2022-07-09T02:28:14;26.53;;;24.13;;
17921;SDS011;9086;50.966;3.144;2022-07-09T02:30:40;25.60;;;23.10;;
17921;SDS011;9086;50.966;3.144;2022-07-09T02:33:07;24.73;;;22.40;;
17921;SDS011;9086;50.966;3.144;2022-07-09T02:35:33;25.53;;;22.93;;
17921;SDS011;9086;50.966;3.144;2022-07-09T02:37:59;26.37;;;23.83;;
17921;SDS011;9086;50.966;3.144;2022-07-09T02:40:25;29.40;;;26.50;;
17921;SDS011;9086;50.966;3.144;2022-07-09T02:42:51;27.87;;;25.07;;
17921;SDS011;9086;50.966;3.144;2022-07-09T02:45:17;28.07;;;25.37;;
17921;SDS011;9086;50.966;3.144;2022-07-09T02:47:43;27.47;;;24.87;;
17921;SDS011;9086;50.966;3.144;2022-07-09T02:50:09;26.63;;;24.23;;
17921;SDS011;9086;50.966;3.144;2022-07-09T02:52:35;26.80;;;24.13;;
17921;SDS011;9086;50.966;3.144;2022-07-09T02:55:04;24.57;;;22.27;;
17921;SDS011;9086;50.966;3.144;2022-07-09T02:57:30;25.53;;;23.13;;
17921;SDS011;9086;50.966;3.144;2022-07-09T02:59:58;25.07;;;22.77;;
17921;SDS011;9086;50.966;3.144;2022-07-09T03:02:24;25.10;;;22.63;;
17921;SDS011;9086;50.966;3.144;2022-07-09T03:04:50;25.77;;;23.20;;
17921;SDS011;9086;50.966;3.144;2022-07-09T03:07:16;23.67;;;21.50;;
17921;SDS011;9086;50.966;3.144;2022-07-09T03:09:44;23.20;;;21.17;;
17921;SDS011;9086;50.966;3.144;2022-07-09T03:12:13;24.80;;;22.20;;
17921;SDS011;9086;50.966;3.144;2022-07-09T03:14:38;25.17;;;22.87;;
17921;SDS011;9086;50.966;3.144;2022-07-09T03:17:04;24.97;;;22.50;;
17921;SDS011;9086;50.966;3.144;2022-07-09T03:19:30;24.97;;;22.57;;
17921;SDS011;9086;50.966;3.144;2022-07-09T03:21:57;25.20;;;22.77;;
17921;SDS011;9086;50.966;3.144;2022-07-09T03:24:23;26.00;;;23.40;;
17921;SDS011;9086;50.966;3.144;2022-07-09T03:26:49;25.03;;;22.63;;
17921;SDS011;9086;50.966;3.144;2022-07-09T03:29:15;27.70;;;25.27;;
17921;SDS011;9086;50.966;3.144;2022-07-09T03:31:41;27.60;;;24.97;;
17921;SDS011;9086;50.966;3.144;2022-07-09T03:34:07;25.80;;;23.33;;
17921;SDS011;9086;50.966;3.144;2022-07-09T03:36:33;24.27;;;22.07;;
17921;SDS011;9086;50.966;3.144;2022-07-09T03:38:59;22.37;;;20.03;;
17921;SDS011;9086;50.966;3.144;2022-07-09T03:41:25;23.33;;;21.03;;
17921;SDS011;9086;50.966;3.144;2022-07-09T03:43:51;23.00;;;20.60;;
17921;SDS011;9086;50.966;3.144;2022-07-09T03:46:19;23.00;;;20.90;;
17921;SDS011;9086;50.966;3.144;2022-07-09T03:48:46;24.37;;;21.97;;
17921;SDS011;9086;50.966;3.144;2022-07-09T03:51:13;23.27;;;20.87;;
17921;SDS011;9086;50.966;3.144;2022-07-09T03:53:39;24.43;;;22.03;;
17921;SDS011;9086;50.966;3.144;2022-07-09T03:56:08;26.33;;;23.63;;
17921;SDS011;9086;50.966;3.144;2022-07-09T03:58:34;24.00;;;21.70;;
17921;SDS011;9086;50.966;3.144;2022-07-09T04:01:01;25.73;;;23.53;;
17921;SDS011;9086;50.966;3.144;2022-07-09T04:03:27;25.70;;;23.20;;
17921;SDS011;9086;50.966;3.144;2022-07-09T04:05:55;25.03;;;22.63;;
17921;SDS011;9086;50.966;3.144;2022-07-09T04:08:21;24.67;;;22.43;;
17921;SDS011;9086;50.966;3.144;2022-07-09T04:10:47;25.17;;;22.53;;
17921;SDS011;9086;50.966;3.144;2022-07-09T04:13:13;24.30;;;22.10;;
17921;SDS011;9086;50.966;3.144;2022-07-09T04:15:39;25.93;;;23.47;;
17921;SDS011;9086;50.966;3.144;2022-07-09T04:18:07;25.77;;;23.27;;
17921;SDS011;9086;50.966;3.144;2022-07-09T04:20:33;27.83;;;25.23;;
17921;SDS011;9086;50.966;3.144;2022-07-09T04:23:06;26.67;;;24.03;;
17921;SDS011;9086;50.966;3.144;2022-07-09T04:25:32;29.60;;;26.67;;
17921;SDS011;9086;50.966;3.144;2022-07-09T04:27:59;29.07;;;26.43;;
17921;SDS011;9086;50.966;3.144;2022-07-09T04:30:27;28.87;;;26.00;;
17921;SDS011;9086;50.966;3.144;2022-07-09T04:32:53;28.80;;;26.13;;
17921;SDS011;9086;50.966;3.144;2022-07-09T04:35:19;28.80;;;26.10;;
17921;SDS011;9086;50.966;3.144;2022-07-09T04:37:45;27.80;;;25.17;;
17921;SDS011;9086;50.966;3.144;2022-07-09T04:40:11;26.90;;;24.30;;
17921;SDS011;9086;50.966;3.144;2022-07-09T04:42:37;27.83;;;25.40;;
17921;SDS011;9086;50.966;3.144;2022-07-09T04:45:03;29.60;;;26.43;;
17921;SDS011;9086;50.966;3.144;2022-07-09T04:47:29;29.53;;;26.80;;
17921;SDS011;9086;50.966;3.144;2022-07-09T04:49:55;32.70;;;29.50;;
17921;SDS011;9086;50.966;3.144;2022-07-09T04:52:29;33.60;;;30.23;;
17921;SDS011;9086;50.966;3.144;2022-07-09T04:54:55;36.80;;;33.30;;
17921;SDS011;9086;50.966;3.144;2022-07-09T04:57:21;34.77;;;31.43;;
17921;SDS011;9086;50.966;3.144;2022-07-09T04:59:47;37.93;;;33.87;;
17921;SDS011;9086;50.966;3.144;2022-07-09T05:02:13;36.73;;;33.17;;
17921;SDS011;9086;50.966;3.144;2022-07-09T05:04:39;34.50;;;31.17;;
17921;SDS011;9086;50.966;3.144;2022-07-09T05:07:05;34.07;;;30.87;;
17921;SDS011;9086;50.966;3.144;2022-07-09T05:09:31;37.33;;;33.60;;
17921;SDS011;9086;50.966;3.144;2022-07-09T05:11:57;35.80;;;32.47;;
17921;SDS011;9086;50.966;3.144;2022-07-09T05:14:26;38.77;;;34.77;;
17921;SDS011;9086;50.966;3.144;2022-07-09T05:16:51;36.90;;;33.47;;
17921;SDS011;9086;50.966;3.144;2022-07-09T05:19:17;38.90;;;34.90;;
17921;SDS011;9086;50.966;3.144;2022-07-09T05:21:46;35.83;;;32.57;;
17921;SDS011;9086;50.966;3.144;2022-07-09T05:24:12;36.00;;;32.40;;
17921;SDS011;9086;50.966;3.144;2022-07-09T05:26:38;35.97;;;32.33;;
17921;SDS011;9086;50.966;3.144;2022-07-09T05:29:04;37.53;;;33.50;;
17921;SDS011;9086;50.966;3.144;2022-07-09T05:31:32;36.37;;;33.03;;
17921;SDS011;9086;50.966;3.144;2022-07-09T05:33:58;35.33;;;31.90;;
17921;SDS011;9086;50.966;3.144;2022-07-09T05:36:25;33.03;;;29.93;;
17921;SDS011;9086;50.966;3.144;2022-07-09T05:38:53;33.30;;;30.10;;
17921;SDS011;9086;50.966;3.144;2022-07-09T05:41:20;32.30;;;28.77;;
17921;SDS011;9086;50.966;3.144;2022-07-09T05:43:47;31.53;;;28.17;;
17921;SDS011;9086;50.966;3.144;2022-07-09T05:46:27;28.47;;;25.63;;
17921;SDS011;9086;50.966;3.144;2022-07-09T05:48:54;27.10;;;24.50;;
17921;SDS011;9086;50.966;3.144;2022-07-09T05:51:25;26.80;;;24.10;;
17921;SDS011;9086;50.966;3.144;2022-07-09T05:53:51;26.63;;;23.87;;
17921;SDS011;9086;50.966;3.144;2022-07-09T05:56:19;26.50;;;23.73;;
17921;SDS011;9086;50.966;3.144;2022-07-09T05:58:45;26.27;;;23.13;;
17921;SDS011;9086;50.966;3.144;2022-07-09T06:01:14;25.40;;;22.63;;
17921;SDS011;9086;50.966;3.144;2022-07-09T06:03:40;25.03;;;22.50;;
17921;SDS011;9086;50.966;3.144;2022-07-09T06:06:08;23.93;;;21.60;;
17921;SDS011;9086;50.966;3.144;2022-07-09T06:08:43;24.93;;;22.53;;
17921;SDS011;9086;50.966;3.144;2022-07-09T06:11:09;24.70;;;22.10;;
17921;SDS011;9086;50.966;3.144;2022-07-09T06:13:37;24.83;;;22.23;;
17921;SDS011;9086;50.966;3.144;2022-07-09T06:16:03;25.52;;;23.13;;
17921;SDS011;9086;50.966;3.144;2022-07-09T06:18:29;24.53;;;22.30;;
17921;SDS011;9086;50.966;3.144;2022-07-09T06:20:55;23.40;;;21.27;;
17921;SDS011;9086;50.966;3.144;2022-07-09T06:23:22;23.57;;;21.43;;
17921;SDS011;9086;50.966;3.144;2022-07-09T06:25:48;23.67;;;21.17;;
17921;SDS011;9086;50.966;3.144;2022-07-09T06:28:17;23.03;;;20.90;;
17921;SDS011;9086;50.966;3.144;2022-07-09T06:30:44;24.07;;;21.77;;
17921;SDS011;9086;50.966;3.144;2022-07-09T06:33:10;24.57;;;22.00;;
17921;SDS011;9086;50.966;3.144;2022-07-09T06:35:36;23.10;;;20.73;;
17921;SDS011;9086;50.966;3.144;2022-07-09T06:38:04;22.70;;;20.53;;
17921;SDS011;9086;50.966;3.144;2022-07-09T06:40:32;22.50;;;20.10;;
17921;SDS011;9086;50.966;3.144;2022-07-09T06:42:59;23.33;;;21.23;;
17921;SDS011;9086;50.966;3.144;2022-07-09T06:45:25;22.87;;;20.57;;
17921;SDS011;9086;50.966;3.144;2022-07-09T06:47:51;23.08;;;20.75;;
17921;SDS011;9086;50.966;3.144;2022-07-09T06:50:18;24.25;;;21.75;;
17921;SDS011;9086;50.966;3.144;2022-07-09T06:52:44;24.35;;;22.05;;
17921;SDS011;9086;50.966;3.144;2022-07-09T06:55:10;25.40;;;22.03;;
17921;SDS011;9086;50.966;3.144;2022-07-09T06:57:36;25.27;;;22.75;;
17921;SDS011;9086;50.966;3.144;2022-07-09T07:00:05;23.87;;;21.57;;
17921;SDS011;9086;50.966;3.144;2022-07-09T07:02:31;24.27;;;21.95;;
17921;SDS011;9086;50.966;3.144;2022-07-09T07:04:58;25.43;;;22.80;;
17921;SDS011;9086;50.966;3.144;2022-07-09T07:07:24;25.45;;;23.05;;
17921;SDS011;9086;50.966;3.144;2022-07-09T07:09:52;25.63;;;23.20;;
17921;SDS011;9086;50.966;3.144;2022-07-09T07:12:21;24.27;;;22.10;;
17921;SDS011;9086;50.966;3.144;2022-07-09T07:14:47;24.85;;;22.30;;
17921;SDS011;9086;50.966;3.144;2022-07-09T07:17:13;25.60;;;22.98;;
17921;SDS011;9086;50.966;3.144;2022-07-09T07:19:39;23.92;;;21.52;;
17921;SDS011;9086;50.966;3.144;2022-07-09T07:22:05;26.48;;;23.75;;
17921;SDS011;9086;50.966;3.144;2022-07-09T07:24:34;26.13;;;23.50;;
17921;SDS011;9086;50.966;3.144;2022-07-09T07:27:00;24.05;;;21.75;;
17921;SDS011;9086;50.966;3.144;2022-07-09T07:29:26;24.48;;;22.20;;
17921;SDS011;9086;50.966;3.144;2022-07-09T07:31:52;24.80;;;22.20;;
17921;SDS011;9086;50.966;3.144;2022-07-09T07:34:18;23.00;;;20.90;;
17921;SDS011;9086;50.966;3.144;2022-07-09T07:36:47;23.63;;;21.42;;
17921;SDS011;9086;50.966;3.144;2022-07-09T07:39:16;23.10;;;21.00;;
17921;SDS011;9086;50.966;3.144;2022-07-09T07:41:42;22.98;;;20.77;;
17921;SDS011;9086;50.966;3.144;2022-07-09T07:44:09;23.13;;;20.77;;
17921;SDS011;9086;50.966;3.144;2022-07-09T07:46:36;20.83;;;18.92;;
17921;SDS011;9086;50.966;3.144;2022-07-09T07:49:02;21.45;;;19.50;;
17921;SDS011;9086;50.966;3.144;2022-07-09T07:51:28;20.48;;;18.10;;
17921;SDS011;9086;50.966;3.144;2022-07-09T07:53:54;17.67;;;15.93;;
17921;SDS011;9086;50.966;3.144;2022-07-09T07:56:22;11.60;;;10.48;;
17921;SDS011;9086;50.966;3.144;2022-07-09T07:58:48;9.80;;;8.80;;
17921;SDS011;9086;50.966;3.144;2022-07-09T08:01:15;9.15;;;7.88;;
17921;SDS011;9086;50.966;3.144;2022-07-09T08:03:41;8.80;;;7.43;;
17921;SDS011;9086;50.966;3.144;2022-07-09T08:06:07;7.38;;;6.47;;
17921;SDS011;9086;50.966;3.144;2022-07-09T08:08:33;7.00;;;6.30;;
17921;SDS011;9086;50.966;3.144;2022-07-09T08:10:59;7.40;;;5.30;;
17921;SDS011;9086;50.966;3.144;2022-07-09T08:13:34;6.75;;;4.28;;
17921;SDS011;9086;50.966;3.144;2022-07-09T08:16:00;4.30;;;2.40;;
17921;SDS011;9086;50.966;3.144;2022-07-09T08:18:27;4.90;;;2.50;;
17921;SDS011;9086;50.966;3.144;2022-07-09T08:20:53;4.60;;;2.60;;
17921;SDS011;9086;50.966;3.144;2022-07-09T08:23:21;2.85;;;2.45;;
17921;SDS011;9086;50.966;3.144;2022-07-09T08:25:47;2.72;;;2.17;;
17921;SDS011;9086;50.966;3.144;2022-07-09T08:28:17;2.38;;;1.92;;
17921;SDS011;9086;50.966;3.144;2022-07-09T08:30:44;2.95;;;2.10;;
17921;SDS011;9086;50.966;3.144;2022-07-09T08:33:10;3.97;;;1.95;;
17921;SDS011;9086;50.966;3.144;2022-07-09T08:35:36;1.73;;;1.63;;
17921;SDS011;9086;50.966;3.144;2022-07-09T08:38:02;2.30;;;1.50;;
17921;SDS011;9086;50.966;3.144;2022-07-09T08:40:28;1.67;;;0.90;;
17921;SDS011;9086;50.966;3.144;2022-07-09T08:42:54;2.53;;;1.02;;
17921;SDS011;9086;50.966;3.144;2022-07-09T08:45:22;1.83;;;0.98;;
17921;SDS011;9086;50.966;3.144;2022-07-09T08:47:50;1.42;;;0.73;;
17921;SDS011;9086;50.966;3.144;2022-07-09T08:50:17;4.15;;;1.35;;
17921;SDS011;9086;50.966;3.144;2022-07-09T08:52:44;1.45;;;0.85;;
17921;SDS011;9086;50.966;3.144;2022-07-09T08:55:10;3.47;;;2.10;;
17921;SDS011;9086;50.966;3.144;2022-07-09T08:57:36;4.82;;;1.42;;
17921;SDS011;9086;50.966;3.144;2022-07-09T09:00:03;1.52;;;1.10;;
17921;SDS011;9086;50.966;3.144;2022-07-09T09:02:36;2.22;;;1.10;;
17921;SDS011;9086;50.966;3.144;2022-07-09T09:05:09;2.47;;;1.20;;
17921;SDS011;9086;50.966;3.144;2022-07-09T09:07:35;2.13;;;1.33;;
17921;SDS011;9086;50.966;3.144;2022-07-09T09:10:04;1.40;;;1.00;;
17921;SDS011;9086;50.966;3.144;2022-07-09T09:12:30;1.50;;;1.20;;
17921;SDS011;9086;50.966;3.144;2022-07-09T09:14:56;2.78;;;0.98;;
17921;SDS011;9086;50.966;3.144;2022-07-09T09:17:23;2.17;;;1.65;;
17921;SDS011;9086;50.966;3.144;2022-07-09T09:19:49;2.15;;;1.10;;
17921;SDS011;9086;50.966;3.144;2022-07-09T09:22:16;1.80;;;1.10;;
17921;SDS011;9086;50.966;3.144;2022-07-09T09:24:42;2.75;;;1.30;;
17921;SDS011;9086;50.966;3.144;2022-07-09T09:27:10;1.23;;;1.10;;
17921;SDS011;9086;50.966;3.144;2022-07-09T09:29:47;2.03;;;1.30;;
17921;SDS011;9086;50.966;3.144;2022-07-09T09:32:18;3.63;;;1.65;;
17921;SDS011;9086;50.966;3.144;2022-07-09T09:34:48;2.17;;;1.00;;
17921;SDS011;9086;50.966;3.144;2022-07-09T09:37:24;2.97;;;1.15;;
17921;SDS011;9086;50.966;3.144;2022-07-09T09:39:50;3.10;;;1.10;;
17921;SDS011;9086;50.966;3.144;2022-07-09T09:42:16;2.10;;;1.15;;
17921;SDS011;9086;50.966;3.144;2022-07-09T09:44:42;3.58;;;1.05;;
17921;SDS011;9086;50.966;3.144;2022-07-09T09:47:09;2.53;;;2.10;;
17921;SDS011;9086;50.966;3.144;2022-07-09T09:49:37;3.67;;;0.98;;
17921;SDS011;9086;50.966;3.144;2022-07-09T09:52:04;1.73;;;0.80;;
17921;SDS011;9086;50.966;3.144;2022-07-09T09:54:34;1.15;;;0.82;;
17921;SDS011;9086;50.966;3.144;2022-07-09T09:57:06;2.63;;;0.90;;
17921;SDS011;9086;50.966;3.144;2022-07-09T09:59:36;0.55;;;0.50;;
17921;SDS011;9086;50.966;3.144;2022-07-09T10:02:04;0.40;;;0.40;;
17921;SDS011;9086;50.966;3.144;2022-07-09T10:04:40;2.50;;;0.90;;
17921;SDS011;9086;50.966;3.144;2022-07-09T10:07:06;1.50;;;0.82;;
17921;SDS011;9086;50.966;3.144;2022-07-09T10:09:32;1.63;;;0.90;;
17921;SDS011;9086;50.966;3.144;2022-07-09T10:12:02;1.55;;;1.10;;
17921;SDS011;9086;50.966;3.144;2022-07-09T10:14:29;0.90;;;0.90;;
17921;SDS011;9086;50.966;3.144;2022-07-09T10:17:08;0.85;;;0.80;;
17921;SDS011;9086;50.966;3.144;2022-07-09T10:19:34;1.10;;;0.75;;
17921;SDS011;9086;50.966;3.144;2022-07-09T10:22:00;3.10;;;0.85;;
17921;SDS011;9086;50.966;3.144;2022-07-09T10:24:27;1.08;;;0.80;;
17921;SDS011;9086;50.966;3.144;2022-07-09T10:27:06;0.80;;;0.80;;
17921;SDS011;9086;50.966;3.144;2022-07-09T10:29:33;1.00;;;0.90;;
17921;SDS011;9086;50.966;3.144;2022-07-09T10:31:59;2.03;;;0.80;;
17921;SDS011;9086;50.966;3.144;2022-07-09T10:36:56;2.88;;;0.85;;
17921;SDS011;9086;50.966;3.144;2022-07-09T10:39:23;1.27;;;0.60;;
17921;SDS011;9086;50.966;3.144;2022-07-09T10:44:50;1.27;;;0.80;;
17921;SDS011;9086;50.966;3.144;2022-07-09T10:47:18;1.23;;;0.70;;
17921;SDS011;9086;50.966;3.144;2022-07-09T10:49:46;2.28;;;1.10;;
17921;SDS011;9086;50.966;3.144;2022-07-09T10:52:12;1.00;;;0.80;;
17921;SDS011;9086;50.966;3.144;2022-07-09T10:54:45;2.10;;;1.10;;
17921;SDS011;9086;50.966;3.144;2022-07-09T10:57:12;2.63;;;0.90;;
17921;SDS011;9086;50.966;3.144;2022-07-09T10:59:38;1.85;;;1.05;;
17921;SDS011;9086;50.966;3.144;2022-07-09T11:02:04;0.93;;;0.90;;
17921;SDS011;9086;50.966;3.144;2022-07-09T11:04:33;1.85;;;1.10;;
17921;SDS011;9086;50.966;3.144;2022-07-09T11:06:59;1.10;;;1.00;;
17921;SDS011;9086;50.966;3.144;2022-07-09T11:09:26;1.50;;;1.02;;
17921;SDS011;9086;50.966;3.144;2022-07-09T11:11:53;1.95;;;1.40;;
17921;SDS011;9086;50.966;3.144;2022-07-09T11:14:19;1.30;;;0.90;;
17921;SDS011;9086;50.966;3.144;2022-07-09T11:16:53;1.20;;;1.00;;
17921;SDS011;9086;50.966;3.144;2022-07-09T11:19:22;3.13;;;1.02;;
17921;SDS011;9086;50.966;3.144;2022-07-09T11:21:48;3.80;;;0.82;;
17921;SDS011;9086;50.966;3.144;2022-07-09T11:24:15;2.88;;;0.85;;
17921;SDS011;9086;50.966;3.144;2022-07-09T11:26:42;1.17;;;0.80;;
17921;SDS011;9086;50.966;3.144;2022-07-09T11:29:08;0.70;;;0.70;;
17921;SDS011;9086;50.966;3.144;2022-07-09T11:31:34;0.95;;;0.85;;
17921;SDS011;9086;50.966;3.144;2022-07-09T11:34:00;1.58;;;0.98;;
17921;SDS011;9086;50.966;3.144;2022-07-09T11:36:39;1.63;;;1.17;;
17921;SDS011;9086;50.966;3.144;2022-07-09T11:39:05;2.70;;;1.42;;
17921;SDS011;9086;50.966;3.144;2022-07-09T11:41:44;2.30;;;1.17;;
17921;SDS011;9086;50.966;3.144;2022-07-09T11:44:10;1.02;;;0.90;;
17921;SDS011;9086;50.966;3.144;2022-07-09T11:46:38;0.98;;;0.65;;
17921;SDS011;9086;50.966;3.144;2022-07-09T11:49:13;0.70;;;0.70;;
17921;SDS011;9086;50.966;3.144;2022-07-09T11:51:39;1.00;;;0.85;;
17921;SDS011;9086;50.966;3.144;2022-07-09T11:54:06;1.70;;;1.00;;
17921;SDS011;9086;50.966;3.144;2022-07-09T11:56:44;1.95;;;0.70;;
17921;SDS011;9086;50.966;3.144;2022-07-09T11:59:12;1.08;;;0.70;;
17921;SDS011;9086;50.966;3.144;2022-07-09T12:01:38;0.65;;;0.65;;
17921;SDS011;9086;50.966;3.144;2022-07-09T12:04:04;1.00;;;0.70;;
17921;SDS011;9086;50.966;3.144;2022-07-09T12:06:32;0.85;;;0.50;;
17921;SDS011;9086;50.966;3.144;2022-07-09T12:09:01;1.48;;;0.77;;
17921;SDS011;9086;50.966;3.144;2022-07-09T12:11:28;2.10;;;0.63;;
17921;SDS011;9086;50.966;3.144;2022-07-09T12:13:55;2.25;;;0.60;;
17921;SDS011;9086;50.966;3.144;2022-07-09T12:16:21;2.40;;;0.50;;
17921;SDS011;9086;50.966;3.144;2022-07-09T12:18:47;1.70;;;0.63;;
17921;SDS011;9086;50.966;3.144;2022-07-09T12:21:13;3.30;;;0.80;;
17921;SDS011;9086;50.966;3.144;2022-07-09T12:23:42;1.75;;;0.70;;
17921;SDS011;9086;50.966;3.144;2022-07-09T12:26:10;2.47;;;0.75;;
17921;SDS011;9086;50.966;3.144;2022-07-09T12:28:36;1.20;;;0.80;;
17921;SDS011;9086;50.966;3.144;2022-07-09T12:31:02;2.03;;;0.60;;
17921;SDS011;9086;50.966;3.144;2022-07-09T12:33:28;1.85;;;0.80;;
17921;SDS011;9086;50.966;3.144;2022-07-09T12:35:54;2.00;;;0.60;;
17921;SDS011;9086;50.966;3.144;2022-07-09T12:38:20;2.75;;;0.82;;
17921;SDS011;9086;50.966;3.144;2022-07-09T12:40:52;1.60;;;0.90;;
17921;SDS011;9086;50.966;3.144;2022-07-09T12:43:18;0.77;;;0.45;;
17921;SDS011;9086;50.966;3.144;2022-07-09T12:45:47;1.48;;;0.60;;
17921;SDS011;9086;50.966;3.144;2022-07-09T12:48:13;0.60;;;0.60;;
17921;SDS011;9086;50.966;3.144;2022-07-09T12:50:39;1.98;;;1.05;;
17921;SDS011;9086;50.966;3.144;2022-07-09T12:53:06;1.73;;;0.65;;
17921;SDS011;9086;50.966;3.144;2022-07-09T12:55:32;2.63;;;0.93;;
17921;SDS011;9086;50.966;3.144;2022-07-09T12:58:05;2.33;;;0.70;;
17921;SDS011;9086;50.966;3.144;2022-07-09T13:00:31;3.97;;;0.77;;
17921;SDS011;9086;50.966;3.144;2022-07-09T13:02:57;1.55;;;0.70;;
17921;SDS011;9086;50.966;3.144;2022-07-09T13:05:23;2.55;;;0.90;;
17921;SDS011;9086;50.966;3.144;2022-07-09T13:07:49;0.82;;;0.70;;
17921;SDS011;9086;50.966;3.144;2022-07-09T13:10:15;3.45;;;1.02;;
17921;SDS011;9086;50.966;3.144;2022-07-09T13:12:41;2.80;;;0.77;;
17921;SDS011;9086;50.966;3.144;2022-07-09T13:15:09;2.15;;;0.80;;
17921;SDS011;9086;50.966;3.144;2022-07-09T13:17:35;2.58;;;0.80;;
17921;SDS011;9086;50.966;3.144;2022-07-09T13:20:01;2.40;;;0.90;;
17921;SDS011;9086;50.966;3.144;2022-07-09T13:22:27;2.25;;;0.40;;
17921;SDS011;9086;50.966;3.144;2022-07-09T13:24:56;1.25;;;0.80;;
17921;SDS011;9086;50.966;3.144;2022-07-09T13:27:24;1.85;;;0.90;;
17921;SDS011;9086;50.966;3.144;2022-07-09T13:29:50;1.27;;;0.80;;
17921;SDS011;9086;50.966;3.144;2022-07-09T13:32:17;0.70;;;0.70;;
17921;SDS011;9086;50.966;3.144;2022-07-09T13:34:45;2.55;;;0.70;;
17921;SDS011;9086;50.966;3.144;2022-07-09T13:37:18;1.85;;;0.57;;
17921;SDS011;9086;50.966;3.144;2022-07-09T13:39:44;1.75;;;0.80;;
17921;SDS011;9086;50.966;3.144;2022-07-09T13:42:10;1.80;;;0.73;;
17921;SDS011;9086;50.966;3.144;2022-07-09T13:44:36;3.35;;;0.93;;
17921;SDS011;9086;50.966;3.144;2022-07-09T13:47:03;1.05;;;0.77;;
17921;SDS011;9086;50.966;3.144;2022-07-09T13:49:32;1.67;;;0.70;;
17921;SDS011;9086;50.966;3.144;2022-07-09T13:51:57;2.55;;;0.90;;
17921;SDS011;9086;50.966;3.144;2022-07-09T13:54:24;1.58;;;0.70;;
17921;SDS011;9086;50.966;3.144;2022-07-09T13:56:52;1.70;;;0.95;;
17921;SDS011;9086;50.966;3.144;2022-07-09T13:59:18;2.95;;;1.00;;
17921;SDS011;9086;50.966;3.144;2022-07-09T14:01:44;2.15;;;1.00;;
17921;SDS011;9086;50.966;3.144;2022-07-09T14:04:10;2.78;;;1.30;;
17921;SDS011;9086;50.966;3.144;2022-07-09T14:06:38;1.75;;;0.90;;
17921;SDS011;9086;50.966;3.144;2022-07-09T14:09:04;3.15;;;1.10;;
17921;SDS011;9086;50.966;3.144;2022-07-09T14:11:30;1.92;;;1.23;;
17921;SDS011;9086;50.966;3.144;2022-07-09T14:13:56;3.83;;;1.10;;
17921;SDS011;9086;50.966;3.144;2022-07-09T14:16:22;3.78;;;1.05;;
17921;SDS011;9086;50.966;3.144;2022-07-09T14:18:49;2.35;;;0.82;;
17921;SDS011;9086;50.966;3.144;2022-07-09T14:21:15;2.90;;;1.25;;
17921;SDS011;9086;50.966;3.144;2022-07-09T14:23:41;2.70;;;0.90;;
17921;SDS011;9086;50.966;3.144;2022-07-09T14:26:12;1.85;;;0.45;;
17921;SDS011;9086;50.966;3.144;2022-07-09T14:28:38;2.90;;;1.20;;
17921;SDS011;9086;50.966;3.144;2022-07-09T14:31:07;1.27;;;0.70;;
17921;SDS011;9086;50.966;3.144;2022-07-09T14:33:33;4.35;;;1.02;;
17921;SDS011;9086;50.966;3.144;2022-07-09T14:35:59;4.40;;;0.82;;
17921;SDS011;9086;50.966;3.144;2022-07-09T14:38:29;2.28;;;0.82;;
17921;SDS011;9086;50.966;3.144;2022-07-09T14:40:57;4.25;;;0.80;;
17921;SDS011;9086;50.966;3.144;2022-07-09T14:43:23;2.25;;;0.98;;
17921;SDS011;9086;50.966;3.144;2022-07-09T14:45:52;2.17;;;0.98;;
17921;SDS011;9086;50.966;3.144;2022-07-09T14:48:18;1.50;;;0.70;;
17921;SDS011;9086;50.966;3.144;2022-07-09T14:50:44;1.10;;;0.70;;
17921;SDS011;9086;50.966;3.144;2022-07-09T14:53:10;2.05;;;0.73;;